SBI7014 UNTT-UNNT
Flight info
| Callsign | SBI7014 |
|---|---|
| Flight time | 0h 31m |
| Altitude | 20000 |
| Route | NN G829 REGMI |
| Aircraft | E170/M-SDE2E3FGHIRWXY/LB1 |
Departure
| Time | 2026-04-29 17:15 |
|---|---|
| Airport | Tomsk Kamov Airport (UNTT) |
Arrival
| Time | 2026-04-29 17:46 |
|---|---|
| Airport | Novosibirsk Tolmachevo Airport (UNNT) |
| Time | Latitude | Longitude | Altitude | Speed | Heading |
|---|---|---|---|---|---|
| 2026-04-29 16:57 | 56.38886 | 85.21166 | 566 ft | 0 kts | 303° |
| 2026-04-29 17:07 | 56.38883 | 85.21175 | 572 ft | 4 kts | 303° |
| 2026-04-29 17:08 | 56.38868 | 85.21216 | 566 ft | 4 kts | 304° |
| 2026-04-29 17:08 | 56.38855 | 85.21247 | 569 ft | 4 kts | 320° |
| 2026-04-29 17:08 | 56.38834 | 85.21247 | 569 ft | 3 kts | 33° |
| 2026-04-29 17:08 | 56.38816 | 85.21226 | 569 ft | 0 kts | 33° |
| 2026-04-29 17:11 | 56.38833 | 85.21246 | 569 ft | 6 kts | 34° |
| 2026-04-29 17:11 | 56.38887 | 85.21312 | 566 ft | 12 kts | 33° |
| 2026-04-29 17:12 | 56.38958 | 85.21399 | 571 ft | 12 kts | 34° |
| 2026-04-29 17:12 | 56.38969 | 85.21471 | 568 ft | 4 kts | 122° |
| 2026-04-29 17:12 | 56.38946 | 85.21529 | 571 ft | 7 kts | 125° |
| 2026-04-29 17:12 | 56.38922 | 85.21589 | 568 ft | 11 kts | 126° |
| 2026-04-29 17:13 | 56.38883 | 85.21699 | 567 ft | 6 kts | 159° |
| 2026-04-29 17:13 | 56.38849 | 85.21683 | 569 ft | 1 kts | 213° |
| 2026-04-29 17:13 | 56.38847 | 85.21681 | 568 ft | 0 kts | 212° |
| 2026-04-29 17:13 | 56.38847 | 85.21680 | 568 ft | 1 kts | 211° |
| 2026-04-29 17:14 | 56.38845 | 85.21678 | 568 ft | 1 kts | 211° |
| 2026-04-29 17:14 | 56.38783 | 85.21604 | 565 ft | 42 kts | 213° |
| 2026-04-29 17:14 | 56.38300 | 85.21035 | 568 ft | 122 kts | 213° |
| 2026-04-29 17:14 | 56.37436 | 85.20025 | 926 ft | 159 kts | 212° |
| 2026-04-29 17:15 | 56.36528 | 85.19046 | 1808 ft | 151 kts | 214° |
| 2026-04-29 17:15 | 56.35590 | 85.18045 | 2238 ft | 166 kts | 215° |
| 2026-04-29 17:15 | 56.34727 | 85.16647 | 2658 ft | 171 kts | 239° |
| 2026-04-29 17:15 | 56.34086 | 85.14775 | 3176 ft | 180 kts | 241° |
| 2026-04-29 17:16 | 56.33344 | 85.12887 | 3751 ft | 190 kts | 235° |
| 2026-04-29 17:16 | 56.32466 | 85.10947 | 4204 ft | 213 kts | 232° |
| 2026-04-29 17:16 | 56.31463 | 85.08855 | 4740 ft | 228 kts | 231° |
| 2026-04-29 17:16 | 56.30377 | 85.06640 | 5286 ft | 239 kts | 230° |
| 2026-04-29 17:17 | 56.29251 | 85.04360 | 5742 ft | 254 kts | 230° |
| 2026-04-29 17:17 | 56.28061 | 85.01946 | 6351 ft | 261 kts | 230° |
| 2026-04-29 17:17 | 56.26860 | 84.99521 | 6997 ft | 264 kts | 230° |
| 2026-04-29 17:17 | 56.25631 | 84.97041 | 7664 ft | 266 kts | 230° |
| 2026-04-29 17:18 | 56.24392 | 84.94540 | 8302 ft | 268 kts | 230° |
| 2026-04-29 17:18 | 56.23145 | 84.92025 | 8909 ft | 271 kts | 230° |
| 2026-04-29 17:18 | 56.21891 | 84.89493 | 9471 ft | 274 kts | 230° |
| 2026-04-29 17:18 | 56.20613 | 84.86917 | 10322 ft | 276 kts | 230° |
| 2026-04-29 17:19 | 56.19347 | 84.84371 | 10533 ft | 279 kts | 230° |
| 2026-04-29 17:19 | 56.18094 | 84.81590 | 10654 ft | 294 kts | 240° |
| 2026-04-29 17:19 | 56.17420 | 84.78097 | 10983 ft | 299 kts | 264° |
| 2026-04-29 17:19 | 56.17511 | 84.74367 | 11409 ft | 303 kts | 277° |
| 2026-04-29 17:20 | 56.17811 | 84.70593 | 11799 ft | 308 kts | 278° |
| 2026-04-29 17:20 | 56.18149 | 84.66716 | 12534 ft | 317 kts | 278° |
| 2026-04-29 17:20 | 56.18493 | 84.62811 | 13123 ft | 318 kts | 278° |
| 2026-04-29 17:20 | 56.18860 | 84.58928 | 13601 ft | 322 kts | 279° |
| 2026-04-29 17:21 | 56.19253 | 84.54947 | 14105 ft | 326 kts | 279° |
| 2026-04-29 17:21 | 56.19660 | 84.50931 | 14592 ft | 328 kts | 279° |
| 2026-04-29 17:21 | 56.20013 | 84.46888 | 15151 ft | 328 kts | 277° |
| 2026-04-29 17:21 | 56.20316 | 84.42823 | 15731 ft | 329 kts | 276° |
| 2026-04-29 17:22 | 56.20620 | 84.38738 | 16316 ft | 330 kts | 276° |
| 2026-04-29 17:22 | 56.20930 | 84.34642 | 16876 ft | 332 kts | 276° |
| 2026-04-29 17:22 | 56.21247 | 84.30529 | 17496 ft | 333 kts | 276° |
| 2026-04-29 17:22 | 56.21563 | 84.26403 | 18125 ft | 334 kts | 276° |
| 2026-04-29 17:23 | 56.21880 | 84.22251 | 18743 ft | 336 kts | 276° |
| 2026-04-29 17:23 | 56.22169 | 84.18435 | 20336 ft | 277 kts | 275° |
| 2026-04-29 17:23 | 56.22432 | 84.14896 | 20375 ft | 299 kts | 275° |
| 2026-04-29 17:23 | 56.22721 | 84.11040 | 20336 ft | 322 kts | 275° |
| 2026-04-29 17:24 | 56.23024 | 84.07020 | 20346 ft | 334 kts | 275° |
| 2026-04-29 17:24 | 56.23278 | 84.02831 | 20340 ft | 339 kts | 269° |
| 2026-04-29 17:24 | 56.22947 | 83.98710 | 20307 ft | 324 kts | 253° |
| 2026-04-29 17:24 | 56.21980 | 83.95093 | 20342 ft | 330 kts | 239° |
| 2026-04-29 17:25 | 56.20541 | 83.91778 | 20374 ft | 340 kts | 234° |
| 2026-04-29 17:25 | 56.19022 | 83.88481 | 20325 ft | 345 kts | 233° |
| 2026-04-29 17:25 | 56.17459 | 83.85208 | 20309 ft | 345 kts | 232° |
| 2026-04-29 17:25 | 56.15877 | 83.81946 | 20276 ft | 347 kts | 232° |
| 2026-04-29 17:26 | 56.14300 | 83.78726 | 20194 ft | 334 kts | 232° |
| 2026-04-29 17:26 | 56.12792 | 83.75668 | 19885 ft | 323 kts | 232° |
| 2026-04-29 17:26 | 56.11285 | 83.72602 | 19621 ft | 334 kts | 232° |
| 2026-04-29 17:26 | 56.09734 | 83.69432 | 19380 ft | 341 kts | 232° |
| 2026-04-29 17:27 | 56.08165 | 83.66221 | 19138 ft | 343 kts | 232° |
| 2026-04-29 17:27 | 56.06594 | 83.63009 | 18887 ft | 344 kts | 232° |
| 2026-04-29 17:27 | 56.05014 | 83.59793 | 18645 ft | 344 kts | 232° |
| 2026-04-29 17:27 | 56.03434 | 83.56585 | 18371 ft | 343 kts | 232° |
| 2026-04-29 17:28 | 56.01880 | 83.53433 | 18098 ft | 342 kts | 232° |
| 2026-04-29 17:28 | 56.00306 | 83.50243 | 17814 ft | 342 kts | 232° |
| 2026-04-29 17:28 | 55.98728 | 83.47049 | 17544 ft | 342 kts | 232° |
| 2026-04-29 17:28 | 55.97684 | 83.44938 | 17363 ft | 341 kts | 231° |
| 2026-04-29 17:29 | 55.95585 | 83.40703 | 17010 ft | 340 kts | 231° |
| 2026-04-29 17:29 | 55.94016 | 83.37538 | 16737 ft | 340 kts | 231° |
| 2026-04-29 17:29 | 55.92450 | 83.34385 | 16475 ft | 339 kts | 231° |
| 2026-04-29 17:29 | 55.91416 | 83.32304 | 16302 ft | 339 kts | 231° |
| 2026-04-29 17:30 | 55.89323 | 83.28102 | 15956 ft | 338 kts | 231° |
| 2026-04-29 17:30 | 55.87756 | 83.24959 | 15228 ft | 346 kts | 231° |
| 2026-04-29 17:30 | 55.86193 | 83.21833 | 15051 ft | 332 kts | 231° |
| 2026-04-29 17:30 | 55.84675 | 83.18800 | 14813 ft | 322 kts | 231° |
| 2026-04-29 17:31 | 55.83700 | 83.16856 | 14636 ft | 312 kts | 231° |
| 2026-04-29 17:31 | 55.82282 | 83.14029 | 14381 ft | 299 kts | 231° |
| 2026-04-29 17:31 | 55.80494 | 83.10465 | 14052 ft | 285 kts | 231° |
| 2026-04-29 17:31 | 55.79603 | 83.08697 | 13869 ft | 281 kts | 230° |
| 2026-04-29 17:32 | 55.78019 | 83.06629 | 13592 ft | 288 kts | 208° |
| 2026-04-29 17:32 | 55.76114 | 83.05413 | 13349 ft | 293 kts | 201° |
| 2026-04-29 17:32 | 55.74104 | 83.04315 | 13075 ft | 310 kts | 200° |
| 2026-04-29 17:32 | 55.72020 | 83.03210 | 12800 ft | 314 kts | 200° |
| 2026-04-29 17:33 | 55.69922 | 83.02097 | 12533 ft | 315 kts | 200° |
| 2026-04-29 17:33 | 55.67848 | 83.00990 | 12265 ft | 315 kts | 200° |
| 2026-04-29 17:33 | 55.65766 | 82.99875 | 11995 ft | 307 kts | 200° |
| 2026-04-29 17:33 | 55.63759 | 82.98803 | 11743 ft | 296 kts | 200° |
| 2026-04-29 17:34 | 55.61822 | 82.97766 | 11488 ft | 286 kts | 200° |
| 2026-04-29 17:34 | 55.59946 | 82.96762 | 11223 ft | 277 kts | 200° |
| 2026-04-29 17:34 | 55.58118 | 82.95782 | 10981 ft | 272 kts | 199° |
| 2026-04-29 17:34 | 55.56311 | 82.94812 | 10745 ft | 272 kts | 199° |
| 2026-04-29 17:35 | 55.53269 | 82.93183 | 10337 ft | 273 kts | 199° |
| 2026-04-29 17:35 | 55.50855 | 82.91895 | 9993 ft | 273 kts | 199° |
| 2026-04-29 17:35 | 55.49034 | 82.90925 | 9726 ft | 272 kts | 199° |
| 2026-04-29 17:36 | 55.47218 | 82.89958 | 9474 ft | 272 kts | 199° |
| 2026-04-29 17:36 | 55.45933 | 82.89275 | 9259 ft | 272 kts | 198° |
| 2026-04-29 17:36 | 55.44655 | 82.88599 | 9054 ft | 271 kts | 198° |
| 2026-04-29 17:36 | 55.42862 | 82.87644 | 8794 ft | 268 kts | 198° |
| 2026-04-29 17:37 | 55.41077 | 82.86695 | 8544 ft | 268 kts | 198° |
| 2026-04-29 17:37 | 55.39293 | 82.85747 | 8282 ft | 267 kts | 198° |
| 2026-04-29 17:37 | 55.37515 | 82.84804 | 8029 ft | 267 kts | 198° |
| 2026-04-29 17:37 | 55.35741 | 82.83864 | 7779 ft | 266 kts | 198° |
| 2026-04-29 17:38 | 55.33994 | 82.82939 | 7529 ft | 265 kts | 198° |
| 2026-04-29 17:38 | 55.32204 | 82.82298 | 7403 ft | 261 kts | 181° |
| 2026-04-29 17:38 | 55.30399 | 82.82606 | 7472 ft | 265 kts | 173° |
| 2026-04-29 17:38 | 55.28535 | 82.83134 | 7055 ft | 274 kts | 171° |
| 2026-04-29 17:39 | 55.26615 | 82.83732 | 6356 ft | 283 kts | 171° |
| 2026-04-29 17:39 | 55.24693 | 82.84325 | 5954 ft | 279 kts | 171° |
| 2026-04-29 17:39 | 55.22791 | 82.84891 | 5571 ft | 275 kts | 171° |
| 2026-04-29 17:39 | 55.20914 | 82.85439 | 5200 ft | 271 kts | 171° |
| 2026-04-29 17:40 | 55.19068 | 82.85971 | 4828 ft | 267 kts | 172° |
| 2026-04-29 17:40 | 55.17252 | 82.86492 | 4501 ft | 262 kts | 172° |
| 2026-04-29 17:40 | 55.15486 | 82.87007 | 4119 ft | 250 kts | 170° |
| 2026-04-29 17:40 | 55.13839 | 82.87769 | 3840 ft | 242 kts | 163° |
| 2026-04-29 17:41 | 55.12267 | 82.88664 | 3493 ft | 232 kts | 163° |
| 2026-04-29 17:41 | 55.10781 | 82.89450 | 3185 ft | 218 kts | 171° |
| 2026-04-29 17:41 | 55.09342 | 82.89399 | 2968 ft | 199 kts | 191° |
| 2026-04-29 17:41 | 55.08024 | 82.88897 | 2679 ft | 189 kts | 194° |
| 2026-04-29 17:42 | 55.06757 | 82.88468 | 2464 ft | 182 kts | 189° |
| 2026-04-29 17:42 | 55.05542 | 82.88196 | 2294 ft | 172 kts | 187° |
| 2026-04-29 17:42 | 55.04371 | 82.87961 | 2145 ft | 167 kts | 192° |
| 2026-04-29 17:42 | 55.03395 | 82.86966 | 1988 ft | 167 kts | 233° |
| 2026-04-29 17:43 | 55.03077 | 82.85131 | 2076 ft | 161 kts | 270° |
| 2026-04-29 17:43 | 55.02978 | 82.83482 | 2031 ft | 160 kts | 244° |
| 2026-04-29 17:43 | 55.02484 | 82.81701 | 1964 ft | 166 kts | 256° |
| 2026-04-29 17:43 | 55.02434 | 82.79699 | 1770 ft | 164 kts | 270° |
| 2026-04-29 17:44 | 55.02410 | 82.77738 | 1489 ft | 160 kts | 261° |
| 2026-04-29 17:44 | 55.02235 | 82.75886 | 1264 ft | 152 kts | 258° |
| 2026-04-29 17:44 | 55.02045 | 82.74034 | 1154 ft | 157 kts | 258° |
| 2026-04-29 17:44 | 55.01918 | 82.72189 | 876 ft | 148 kts | 260° |
| 2026-04-29 17:45 | 55.01747 | 82.70502 | 664 ft | 136 kts | 259° |
| 2026-04-29 17:45 | 55.01601 | 82.68928 | 530 ft | 134 kts | 259° |
| 2026-04-29 17:45 | 55.01447 | 82.67308 | 388 ft | 129 kts | 259° |
| 2026-04-29 17:45 | 55.01328 | 82.66007 | 371 ft | 79 kts | 262° |
| 2026-04-29 17:46 | 55.01277 | 82.65426 | 371 ft | 28 kts | 261° |
| 2026-04-29 17:46 | 55.01256 | 82.65210 | 371 ft | 18 kts | 259° |
| 2026-04-29 17:46 | 55.01226 | 82.65069 | 370 ft | 12 kts | 208° |
| 2026-04-29 17:46 | 55.01137 | 82.65069 | 370 ft | 14 kts | 170° |
| 2026-04-29 17:47 | 55.01033 | 82.65100 | 371 ft | 16 kts | 171° |
| 2026-04-29 17:47 | 55.00955 | 82.65121 | 371 ft | 4 kts | 172° |
| 2026-04-29 17:47 | 55.00932 | 82.65150 | 371 ft | 3 kts | 100° |
| 2026-04-29 17:47 | 55.00942 | 82.65193 | 371 ft | 5 kts | 67° |
| 2026-04-29 17:48 | 55.00947 | 82.65242 | 371 ft | 3 kts | 85° |
| 2026-04-29 17:48 | 55.00944 | 82.65263 | 371 ft | 1 kts | 133° |
| 2026-04-29 17:48 | 55.00936 | 82.65267 | 371 ft | 0 kts | 173° |
| 2026-04-29 17:48 | 55.00933 | 82.65267 | 371 ft | 0 kts | 174° |